LYBE/BEG METAR and TAF weather

Enter ICAO airport designator
Station Type Date Time Source
LYBE METAR 2018/08/14 23:30 UTC NOAA

LYBE 142330Z 32007KT 290V360 CAVOK 20/18 Q1013 NOSIG


Station Type Date Time Source
LYBE Decoded METAR 2018/08/14 23:30 UTC NOAA

Beograd / Surcin, Serbia and Montenegro (LYBE) 44-49N 020-17E 99M
Aug 14, 2018 - 07:30 PM EDT / 2018.08.14 2330 UTC
Wind: from the NW (320 degrees) at 8 MPH (7 KT) (direction variable):0
Visibility: greater than 7 mile(s):0
Temperature: 68 F (20 C)
Dew Point: 64 F (18 C)
Relative Humidity: 88%
Pressure (altimeter): 29.91 in. Hg (1013 hPa)
ob: LYBE 142330Z 32007KT 290V360 CAVOK 20/18 Q1013 NOSIG
cycle: 23

Station Type Date Time Source
LYBE TAF 2018/08/14 18:21 UTC NOAA

TAF LYBE 141700Z 1418/1518 15006KT 9999 SCT040 TX30/1418Z TN20/1503Z
TEMPO 1418/1421 25015G25KT 5000 TSRA SCT033CB SCT040
BECMG 1421/1423 32010KT
TEMPO 1422/1509 VRB25KT 5000 TSRA SCT030CB SCT033


Example: see airport list